createdAt,value
2023-02-18T00:02:32.881Z,99291.16
2023-02-18T00:05:20.018Z,99289.38
2023-02-18T00:08:06.882Z,99273.13
2023-02-18T00:10:53.885Z,99282.38
2023-02-18T00:13:40.805Z,99283.25
2023-02-18T00:16:32.669Z,99271.84
2023-02-18T00:19:23.072Z,99282.38
2023-02-18T00:22:09.978Z,99241.25
2023-02-18T00:24:56.924Z,99271.22
2023-02-18T00:27:43.922Z,99267.66
2023-02-18T00:30:31.428Z,99274.47
2023-02-18T00:33:18.432Z,99271.00
2023-02-18T00:36:05.665Z,99269.22
2023-02-18T00:38:53.317Z,99270.00
2023-02-18T00:41:42.256Z,99269.16
2023-02-18T00:44:30.318Z,99269.16
2023-02-18T00:47:17.677Z,99258.72
2023-02-18T00:50:04.632Z,99265.59
2023-02-18T00:52:51.582Z,99209.41
2023-02-18T00:55:38.418Z,99264.72
2023-02-18T00:58:25.339Z,99259.47
2023-02-18T01:01:12.328Z,99255.16
2023-02-18T01:04:02.517Z,99264.66
2023-02-18T01:06:49.494Z,99238.25
2023-02-18T01:09:36.443Z,99255.94
2023-02-18T01:12:23.828Z,99248.91
2023-02-18T01:15:10.936Z,99256.78
2023-02-18T01:17:59.554Z,99227.59
2023-02-18T01:20:46.801Z,99249.97
2023-02-18T01:23:35.170Z,99254.09
2023-02-18T01:26:22.397Z,99248.00
2023-02-18T01:29:09.451Z,99252.31
2023-02-18T01:31:56.604Z,99240.03
2023-02-18T01:34:43.591Z,99234.00
2023-02-18T01:37:30.572Z,99237.41
2023-02-18T01:40:17.468Z,99236.56
2023-02-18T01:43:04.893Z,99225.34
2023-02-18T01:45:54.457Z,99244.38
2023-02-18T01:48:56.658Z,99238.25
2023-02-18T01:51:56.026Z,99237.34
2023-02-18T01:54:55.964Z,99234.72
2023-02-18T01:57:47.011Z,99225.25
2023-02-18T02:00:39.064Z,99179.31
2023-02-18T02:03:25.920Z,99224.28
2023-02-18T02:06:12.890Z,99218.97
2023-02-18T02:09:00.968Z,99217.16
2023-02-18T02:12:03.000Z,99218.03
2023-02-18T02:15:38.429Z,99197.75
2023-02-18T02:18:47.233Z,99221.59
2023-02-18T02:22:11.541Z,99212.75
2023-02-18T02:25:16.218Z,99212.75
2023-02-18T02:28:44.266Z,99205.81
2023-02-18T02:31:59.019Z,99211.06
2023-02-18T02:34:58.286Z,99210.13
2023-02-18T02:37:54.635Z,99202.25
2023-02-18T02:40:55.129Z,99196.16
2023-02-18T02:44:16.323Z,99202.25
2023-02-18T02:47:06.853Z,99206.66
2023-02-18T02:50:14.081Z,99175.00
2023-02-18T02:53:12.793Z,99184.25
2023-02-18T02:56:00.501Z,99160.97
2023-02-18T02:58:49.138Z,99183.22
2023-02-18T03:01:54.183Z,99187.34
2023-02-18T03:04:56.193Z,99188.19
2023-02-18T03:08:05.085Z,99195.16
2023-02-18T03:11:31.527Z,99189.91
2023-02-18T03:14:33.960Z,99190.75
2023-02-18T03:17:35.631Z,99188.19
2023-02-18T03:20:34.506Z,99172.66
2023-02-18T03:23:27.135Z,99187.22
2023-02-18T03:26:17.045Z,99186.28
2023-02-18T03:29:09.142Z,99183.66
2023-02-18T03:31:58.801Z,99179.31
2023-02-18T03:34:57.494Z,99181.00
2023-02-18T03:37:44.716Z,99165.78
2023-02-18T03:40:32.621Z,99175.69
2023-02-18T03:43:21.707Z,99167.88
2023-02-18T03:46:08.926Z,99181.81
2023-02-18T03:48:56.277Z,99161.16
2023-02-18T03:51:43.124Z,99174.75
2023-02-18T03:54:31.062Z,99171.22
2023-02-18T03:57:18.040Z,99177.38
2023-02-18T04:00:04.954Z,99178.25
2023-02-18T04:02:59.964Z,99175.69
2023-02-18T04:05:47.182Z,99167.16
2023-02-18T04:08:34.349Z,99174.75
2023-02-18T04:11:21.694Z,99170.59
2023-02-18T04:14:08.690Z,99175.53
2023-02-18T04:16:56.124Z,99173.84
2023-02-18T04:19:43.298Z,99186.97
2023-02-18T04:22:30.413Z,99179.94
2023-02-18T04:25:17.445Z,99174.69
2023-02-18T04:28:04.395Z,99175.53
2023-02-18T04:30:51.747Z,99175.53
2023-02-18T04:33:38.857Z,99164.41
2023-02-18T04:36:26.295Z,99168.53
2023-02-18T04:39:13.453Z,99171.16
2023-02-18T04:42:00.311Z,99171.22
2023-02-18T04:44:47.662Z,99167.66
2023-02-18T04:47:34.802Z,99174.59
2023-02-18T04:50:21.770Z,99171.97
2023-02-18T04:53:09.223Z,99161.47
2023-02-18T04:55:56.646Z,99160.63
2023-02-18T04:58:43.523Z,99156.22
2023-02-18T05:01:31.095Z,99122.19
2023-02-18T05:04:18.002Z,99152.69
2023-02-18T05:07:05.161Z,99153.59
2023-02-18T05:09:51.969Z,99152.69
2023-02-18T05:12:38.942Z,99140.59
2023-02-18T05:15:26.463Z,99141.53
2023-02-18T05:18:13.469Z,99142.16
2023-02-18T05:21:00.356Z,99153.50
2023-02-18T05:23:47.528Z,99144.78
2023-02-18T05:26:34.417Z,99126.06
2023-02-18T05:29:21.606Z,99143.16
2023-02-18T05:32:08.617Z,99141.31
2023-02-18T05:34:55.713Z,99129.34
2023-02-18T05:37:42.642Z,99150.88
2023-02-18T05:40:31.151Z,99151.81
2023-02-18T05:43:18.223Z,99146.56
2023-02-18T05:46:05.552Z,99144.09
2023-02-18T05:48:52.413Z,99159.69
2023-02-18T05:51:39.522Z,99151.81
2023-02-18T05:54:26.468Z,99152.69
2023-02-18T05:57:14.498Z,99144.78
2023-02-18T06:00:01.721Z,99146.56
2023-02-18T06:02:51.978Z,99130.41
2023-02-18T06:05:38.982Z,99144.88
2023-02-18T06:08:25.972Z,99146.56
2023-02-18T06:11:12.775Z,99144.78
2023-02-18T06:13:59.858Z,99145.69
2023-02-18T06:16:47.190Z,99147.41
2023-02-18T06:19:34.199Z,99141.38
2023-02-18T06:22:21.064Z,99149.19
2023-02-18T06:25:08.449Z,99144.78
2023-02-18T06:27:55.341Z,99146.72
2023-02-18T06:30:42.314Z,99139.53
2023-02-18T06:33:29.248Z,99143.06
2023-02-18T06:36:19.222Z,99151.75
2023-02-18T06:39:06.378Z,99136.91
2023-02-18T06:41:53.567Z,99136.91
2023-02-18T06:44:40.387Z,99143.06
2023-02-18T06:47:27.349Z,99132.63
2023-02-18T06:50:14.192Z,99140.38
2023-02-18T06:53:01.242Z,99143.00
2023-02-18T06:55:48.250Z,99140.28
2023-02-18T06:58:35.880Z,99143.84
2023-02-18T07:01:22.843Z,99141.22
2023-02-18T07:04:09.975Z,99142.09
2023-02-18T07:06:56.997Z,99129.09
2023-02-18T07:09:44.132Z,99138.59
2023-02-18T07:12:31.154Z,99143.00
2023-02-18T07:15:18.149Z,99132.56
2023-02-18T07:18:05.013Z,99141.22
2023-02-18T07:20:52.087Z,99142.16
2023-02-18T07:23:38.953Z,99138.59
2023-02-18T07:26:32.010Z,99135.13
2023-02-18T07:29:19.066Z,99136.84
2023-02-18T07:32:05.978Z,99138.59
2023-02-18T07:34:52.927Z,99135.97
2023-02-18T07:37:40.826Z,99131.50
2023-02-18T07:40:28.220Z,99128.88
2023-02-18T07:43:15.195Z,99139.38
2023-02-18T07:46:02.471Z,99119.66
2023-02-18T07:48:49.481Z,99139.31
2023-02-18T07:51:36.522Z,99107.53
2023-02-18T10:12:08.903Z,99032.25
2023-02-18T10:14:56.498Z,99101.88
2023-02-18T10:17:47.910Z,99091.69
2023-02-18T10:20:42.600Z,99104.34
2023-02-18T10:23:32.311Z,99098.16
2023-02-18T10:26:22.716Z,99100.69
2023-02-18T10:29:09.764Z,99103.25
2023-02-18T10:32:01.127Z,99074.97
2023-02-18T10:35:14.321Z,99090.09
2023-02-18T10:38:14.922Z,99096.97
2023-02-18T10:41:01.991Z,99095.09
2023-02-18T10:44:07.413Z,99095.97
2023-02-18T10:47:36.521Z,99096.72
2023-02-18T10:50:38.693Z,99094.94
2023-02-18T10:53:33.818Z,99090.63
2023-02-18T10:56:20.932Z,99091.22
2023-02-18T10:59:08.185Z,99035.00
2023-02-18T11:01:55.150Z,99090.22
2023-02-18T11:05:01.324Z,99088.41
2023-02-18T11:07:57.907Z,99097.16
2023-02-18T11:10:49.294Z,99029.56
2023-02-18T11:13:43.778Z,99087.34
2023-02-18T11:16:32.596Z,99080.31
2023-02-18T11:19:20.118Z,99073.50
2023-02-18T11:22:07.684Z,99066.88
2023-02-18T11:24:59.127Z,99081.91
2023-02-18T11:27:48.904Z,99081.84
2023-02-18T11:30:45.703Z,99085.31
2023-02-18T11:33:41.720Z,99080.06
2023-02-18T11:36:54.553Z,99084.38
2023-02-18T11:39:28.164Z,99081.75
2023-02-18T11:42:18.663Z,99074.97
2023-02-18T11:45:13.713Z,99087.78
2023-02-18T11:48:00.847Z,99073.78
2023-02-18T11:50:53.336Z,99084.13
2023-02-18T11:53:55.905Z,99086.69
2023-02-18T11:56:42.928Z,99084.91
2023-02-18T11:59:31.719Z,99084.03
2023-02-18T12:02:30.937Z,99082.19
2023-02-18T12:05:34.130Z,99083.03
2023-02-18T12:08:44.843Z,99085.56
2023-02-18T12:11:42.581Z,99078.88
2023-02-18T12:14:43.703Z,99083.09
2023-02-18T12:17:58.498Z,99090.91
2023-02-18T12:21:07.246Z,99089.16
2023-02-18T12:24:00.620Z,99088.28
2023-02-18T12:27:04.807Z,99088.28
2023-02-18T12:30:21.114Z,99088.28
2023-02-18T12:33:23.338Z,99079.66
2023-02-18T12:36:54.882Z,99084.03
2023-02-18T12:39:50.573Z,99085.00
2023-02-18T12:42:47.394Z,99077.19
2023-02-18T12:46:13.238Z,99079.81
2023-02-18T12:49:29.802Z,99066.38
2023-02-18T12:52:49.273Z,99081.59
2023-02-18T12:55:38.715Z,99075.53
2023-02-18T12:58:58.511Z,99070.28
2023-02-18T13:02:02.112Z,99075.53
2023-02-18T13:05:00.326Z,99079.03
2023-02-18T13:08:34.576Z,99072.91
2023-02-18T13:11:55.621Z,99074.81
2023-02-18T13:14:50.664Z,99073.00
2023-02-18T13:17:39.609Z,99062.63
2023-02-18T13:20:40.865Z,99077.50
2023-02-18T13:23:36.252Z,99074.03
2023-02-18T13:26:25.841Z,99076.66
2023-02-18T13:29:23.452Z,99064.44
2023-02-18T13:32:37.575Z,99068.00
2023-02-18T13:35:27.454Z,99068.00
2023-02-18T13:38:48.348Z,99069.78
2023-02-18T13:41:35.878Z,99071.56
2023-02-18T13:44:28.416Z,99068.06
2023-02-18T13:47:18.489Z,99063.75
2023-02-18T13:50:05.541Z,99068.22
2023-02-18T13:52:52.633Z,99072.56
2023-02-18T13:55:45.910Z,99065.06
2023-02-18T13:58:43.882Z,99065.78
2023-02-18T14:01:30.649Z,99070.00
2023-02-18T14:04:19.440Z,99056.44
2023-02-18T14:07:43.508Z,99073.56
2023-02-18T14:10:37.013Z,99070.09
2023-02-18T14:13:43.427Z,99076.28
2023-02-18T14:16:31.323Z,99075.50
2023-02-18T14:19:21.367Z,99040.88
2023-02-18T14:22:08.198Z,99072.97
2023-02-18T14:25:08.721Z,99080.94
2023-02-18T14:27:57.582Z,99073.97
2023-02-18T14:30:46.195Z,99078.38
2023-02-18T14:33:36.372Z,99082.81
2023-02-18T14:36:31.987Z,99075.91
2023-02-18T14:39:55.870Z,99087.38
2023-02-18T14:42:48.940Z,99079.56
2023-02-18T14:45:39.417Z,99074.31
2023-02-18T14:48:44.298Z,99077.03
2023-02-18T14:51:36.210Z,99081.50
2023-02-18T14:54:27.053Z,99085.94
2023-02-18T14:57:21.982Z,99086.03
2023-02-18T15:00:08.863Z,99082.53
2023-02-18T15:02:57.499Z,99077.34
2023-02-18T15:05:47.332Z,99071.22
2023-02-18T15:08:43.030Z,99067.31
2023-02-18T15:11:31.791Z,99077.50
2023-02-18T15:14:18.644Z,99069.16
2023-02-18T15:17:06.771Z,99031.63
2023-02-18T15:20:03.931Z,99028.56
2023-02-18T15:22:53.490Z,99087.31
2023-02-18T15:25:40.596Z,99077.28
2023-02-18T15:28:41.442Z,99065.41
2023-02-18T15:31:31.439Z,99071.34
2023-02-18T15:34:18.438Z,99079.84
2023-02-18T15:37:12.293Z,99080.78
2023-02-18T15:40:02.415Z,99033.88
2023-02-18T15:42:53.144Z,99080.94
2023-02-18T15:45:43.185Z,99050.66
2023-02-18T15:48:50.209Z,99080.25
2023-02-18T15:51:45.146Z,99077.84
2023-02-18T15:54:37.766Z,99018.22
2023-02-18T15:57:26.497Z,99072.59
2023-02-18T16:00:25.501Z,99083.25
2023-02-18T16:03:16.659Z,99082.31
2023-02-18T16:06:03.515Z,99078.94
2023-02-18T16:08:50.690Z,99079.84
2023-02-18T16:11:37.626Z,99077.22
2023-02-18T16:14:24.595Z,99062.88
2023-02-18T16:17:27.129Z,99080.88
2023-02-18T16:20:45.533Z,99080.97
2023-02-18T16:23:34.118Z,99081.03
2023-02-18T16:26:43.164Z,99070.84
2023-02-18T16:29:44.911Z,99082.09
2023-02-18T16:32:31.961Z,99080.25
2023-02-18T16:35:18.893Z,99087.34
2023-02-18T16:38:06.298Z,99089.22
2023-02-18T16:40:54.950Z,99082.25
2023-02-18T16:43:29.563Z,99076.16
2023-02-18T16:46:18.896Z,99081.44
2023-02-18T16:49:09.317Z,99082.34
2023-02-18T16:51:56.333Z,99074.69
2023-02-18T16:54:43.328Z,99052.75
2023-02-18T16:57:33.642Z,99056.84
2023-02-18T17:00:21.659Z,99059.63
2023-02-18T17:03:11.562Z,99086.06
2023-02-18T17:06:01.592Z,99074.84
2023-02-18T17:08:48.560Z,99080.09
2023-02-18T17:11:48.510Z,99088.84
2023-02-18T17:14:39.877Z,99088.91
2023-02-18T17:17:31.919Z,99081.81
2023-02-18T17:20:19.224Z,99093.16
2023-02-18T17:23:06.234Z,99061.50
2023-02-18T17:25:59.667Z,99086.22
2023-02-18T17:28:46.596Z,99083.81
2023-02-18T17:31:40.375Z,99092.41
2023-02-18T17:34:32.303Z,99097.66
2023-02-18T17:37:39.064Z,99098.56
2023-02-18T17:40:33.180Z,99098.63
2023-02-18T17:43:20.496Z,99097.81
2023-02-18T17:46:16.091Z,99086.03
2023-02-18T17:49:04.642Z,99083.50
2023-02-18T17:51:51.640Z,99107.53
2023-02-18T17:54:40.609Z,99103.22
2023-02-18T17:57:28.350Z,99060.84
2023-02-18T18:00:15.304Z,99106.81
2023-02-18T18:03:02.467Z,99105.22
2023-02-18T18:05:52.295Z,99107.84
2023-02-18T18:08:39.169Z,99067.34
2023-02-18T18:11:26.451Z,99113.25
2023-02-18T18:14:13.409Z,99116.94
2023-02-18T18:16:41.021Z,99113.31
2023-02-18T18:19:28.030Z,99115.94
2023-02-18T18:22:15.163Z,99117.72
2023-02-18T18:25:01.991Z,99118.66
2023-02-18T18:27:49.086Z,99091.44
2023-02-18T18:30:36.667Z,99123.91
2023-02-18T18:33:30.180Z,99126.59
2023-02-18T18:36:18.718Z,99124.06
2023-02-18T18:39:06.575Z,99126.69
2023-02-18T18:41:53.484Z,99135.53
2023-02-18T18:44:40.514Z,99120.22
2023-02-18T18:47:15.347Z,99139.97
2023-02-18T18:50:02.598Z,99141.72
2023-02-18T18:52:49.584Z,99139.09
2023-02-18T18:55:48.939Z,99144.44
2023-02-18T18:58:36.391Z,99142.66
2023-02-18T19:01:25.470Z,99138.31
2023-02-18T19:04:12.457Z,99147.06
2023-02-18T19:06:59.686Z,99142.66
2023-02-18T19:09:46.551Z,99143.72
2023-02-18T19:12:33.711Z,99148.00
2023-02-18T19:15:22.816Z,99145.50
2023-02-18T19:18:14.779Z,99148.06
2023-02-18T19:21:02.494Z,99128.47
2023-02-18T19:23:49.745Z,99149.03
2023-02-18T19:26:36.659Z,99152.47
2023-02-18T19:29:23.725Z,99144.94
2023-02-18T19:32:10.895Z,99122.69
2023-02-18T19:34:58.039Z,99148.13
2023-02-18T19:37:45.006Z,99123.38
2023-02-18T19:40:34.220Z,99142.09
2023-02-18T19:43:21.112Z,99145.59
2023-02-18T19:46:08.156Z,99147.34
2023-02-18T19:48:55.122Z,99129.72
2023-02-18T19:51:42.213Z,99143.03
2023-02-18T19:54:29.065Z,99143.94
2023-02-18T19:57:15.987Z,99142.25
2023-02-18T20:00:02.959Z,99152.75
2023-02-18T20:03:00.078Z,99121.34
2023-02-18T20:05:47.218Z,99148.44
2023-02-18T20:08:34.191Z,99152.81
2023-02-18T20:11:21.080Z,99144.94
2023-02-18T20:14:08.625Z,99150.19
2023-02-18T20:16:55.645Z,99149.34
2023-02-18T20:19:42.674Z,99152.97
2023-02-18T20:22:32.301Z,99157.28
2023-02-18T20:25:20.180Z,99151.22
2023-02-18T20:28:07.146Z,99160.84
2023-02-18T20:30:54.006Z,99139.44
2023-02-18T20:33:41.133Z,99145.69
2023-02-18T20:36:28.906Z,99170.50
2023-02-18T20:39:16.563Z,99166.19
2023-02-18T20:42:15.476Z,99150.06
2023-02-18T20:45:03.862Z,99161.00
2023-02-18T20:47:50.758Z,99164.84
2023-02-18T20:50:37.745Z,99171.56
2023-02-18T20:53:24.761Z,99160.72
2023-02-18T20:56:11.788Z,99161.81
2023-02-18T20:58:58.983Z,99175.47
2023-02-18T21:01:46.717Z,99184.84
2023-02-18T21:04:36.684Z,99177.03
2023-02-18T21:07:23.501Z,99183.22
2023-02-18T21:10:10.455Z,99185.06
2023-02-18T21:12:57.322Z,99186.81
2023-02-18T21:15:44.198Z,99181.66
2023-02-18T21:18:31.374Z,99177.41
2023-02-18T21:21:20.987Z,99189.59
2023-02-18T21:24:08.042Z,99187.03
2023-02-18T21:26:55.596Z,99187.91
2023-02-18T21:29:42.604Z,99182.06
2023-02-18T21:32:29.639Z,99195.91
2023-02-18T21:35:16.546Z,99180.53
2023-02-18T21:38:03.381Z,99195.13
2023-02-18T21:40:50.939Z,99194.25
2023-02-18T21:43:37.872Z,99200.44
2023-02-18T21:46:29.510Z,99174.78
2023-02-18T21:49:26.830Z,99167.97
2023-02-18T21:52:16.796Z,99196.13
2023-02-18T21:55:06.969Z,99181.78
2023-02-18T21:57:53.949Z,99204.16
2023-02-18T22:00:41.198Z,99199.72
2023-02-18T22:03:28.133Z,99131.66
2023-02-18T22:06:15.032Z,99206.84
2023-02-18T22:09:01.923Z,99200.09
2023-02-18T22:11:29.977Z,99202.50
2023-02-18T22:14:16.968Z,99208.59
2023-02-18T22:17:04.327Z,99192.34
2023-02-18T22:19:51.416Z,99207.81
2023-02-18T22:22:38.426Z,99207.88
2023-02-18T22:25:26.109Z,99202.72
2023-02-18T22:28:13.082Z,99210.50
2023-02-18T22:31:00.119Z,99211.44
2023-02-18T22:33:35.519Z,99207.13
2023-02-18T22:36:08.173Z,99200.09
2023-02-18T22:38:40.413Z,99202.78
2023-02-18T22:41:29.964Z,99201.94
2023-02-18T22:44:19.084Z,99198.75
2023-02-18T22:47:05.983Z,99217.69
2023-02-18T22:49:53.185Z,99216.81
2023-02-18T22:52:35.803Z,99213.41
2023-02-18T22:55:23.201Z,99215.06
2023-02-18T22:58:10.035Z,99219.44
2023-02-18T23:00:57.098Z,99227.31
2023-02-18T23:03:44.099Z,99230.81
2023-02-18T23:06:31.192Z,99229.09
2023-02-18T23:08:58.552Z,99241.38
2023-02-18T23:11:45.762Z,99241.44
2023-02-18T23:14:38.718Z,99239.66
2023-02-18T23:17:34.447Z,99231.13
2023-02-18T23:20:21.297Z,99237.16
2023-02-18T23:23:08.478Z,99245.84
2023-02-18T23:25:55.514Z,99247.59
2023-02-18T23:28:42.677Z,99245.97
2023-02-18T23:31:29.703Z,99246.84
2023-02-18T23:34:19.156Z,99249.50
2023-02-18T23:36:51.458Z,99231.53
2023-02-18T23:39:37.049Z,99247.06
2023-02-18T23:42:24.274Z,99246.25
2023-02-18T23:45:12.241Z,99252.13
2023-02-18T23:47:59.161Z,99251.34
2023-02-18T23:50:34.695Z,99251.34
2023-02-18T23:53:21.640Z,99241.19
2023-02-18T23:56:08.503Z,99263.69
2023-02-18T23:58:55.453Z,99261.06
